createdAt,value
2019-01-19T00:01:29.767Z,101825.98
2019-01-19T00:04:27.231Z,101822.53
2019-01-19T00:07:21.225Z,101820.50
2019-01-19T00:10:09.172Z,101814.20
2019-01-19T00:12:58.735Z,101816.38
2019-01-19T00:15:30.339Z,101820.93
2019-01-19T00:18:04.938Z,101814.98
2019-01-19T00:20:48.395Z,101818.77
2019-01-19T00:23:25.645Z,101814.38
2019-01-19T00:26:15.419Z,101818.04
2019-01-19T00:28:53.102Z,101817.55
2019-01-19T00:31:36.703Z,101816.48
2019-01-19T00:34:34.140Z,101816.00
2019-01-19T00:37:05.421Z,101816.37
2019-01-19T00:39:45.854Z,101820.88
2019-01-19T00:42:29.694Z,101823.44
2019-01-19T00:45:20.769Z,101819.33
2019-01-19T00:48:04.132Z,101821.52
2019-01-19T00:50:47.667Z,101820.55
2019-01-19T00:53:21.962Z,101821.80
2019-01-19T00:56:05.375Z,101814.12
2019-01-19T00:58:49.061Z,101827.05
2019-01-19T01:01:38.837Z,101826.56
2019-01-19T01:04:36.276Z,101829.61
2019-01-19T01:07:10.975Z,101826.84
2019-01-19T01:09:54.626Z,101836.50
2019-01-19T01:12:32.094Z,101828.82
2019-01-19T01:15:16.018Z,101831.87
2019-01-19T01:17:46.063Z,101831.29
2019-01-19T01:20:23.274Z,101832.39
2019-01-19T01:22:57.813Z,101830.34
2019-01-19T01:25:32.121Z,101828.80
2019-01-19T01:28:18.770Z,101821.88
2019-01-19T01:30:59.223Z,101826.45
2019-01-19T01:33:48.694Z,101819.98
2019-01-19T01:36:31.686Z,101821.59
2019-01-19T01:39:15.401Z,101816.59
2019-01-19T01:41:55.965Z,101824.55
2019-01-19T01:44:33.411Z,101826.99
2019-01-19T01:47:22.944Z,101826.69
2019-01-19T01:50:00.277Z,101820.13
2019-01-19T01:52:37.865Z,101822.95
2019-01-19T01:55:12.429Z,101821.03
2019-01-19T01:57:43.924Z,101822.52
2019-01-19T02:00:25.355Z,101822.89
2019-01-19T02:03:09.057Z,101817.79
2019-01-19T02:05:52.494Z,101818.64
2019-01-19T02:08:26.643Z,101808.84
2019-01-19T02:10:58.272Z,101819.71
2019-01-19T02:13:47.827Z,101816.39
2019-01-19T02:16:31.315Z,101813.44
2019-01-19T02:19:17.695Z,101813.56
2019-01-19T02:21:58.332Z,101822.83
2019-01-19T02:24:45.260Z,101811.15
2019-01-19T02:27:44.254Z,101808.34
2019-01-19T02:30:35.367Z,101811.88
2019-01-19T02:33:12.581Z,101819.44
2019-01-19T02:35:48.621Z,101812.00
2019-01-19T02:38:26.449Z,101812.09
2019-01-19T02:41:04.138Z,101813.83
2019-01-19T02:43:58.541Z,101811.02
2019-01-19T02:46:57.415Z,101804.67
2019-01-19T02:50:02.423Z,101810.05
2019-01-19T02:52:36.649Z,101802.84
2019-01-19T02:55:29.213Z,101806.14
2019-01-19T02:58:23.485Z,101815.88
2019-01-19T03:01:01.089Z,101818.02
2019-01-19T03:03:35.294Z,101814.21
2019-01-19T03:06:09.571Z,101810.31
2019-01-19T03:08:59.221Z,101811.28
2019-01-19T03:11:30.826Z,101819.43
2019-01-19T03:14:08.358Z,101808.20
2019-01-19T03:17:03.705Z,101812.23
2019-01-19T03:19:47.446Z,101805.92
2019-01-19T03:22:27.886Z,101799.70
2019-01-19T03:24:59.509Z,101805.80
2019-01-19T03:27:31.124Z,101798.72
2019-01-19T03:30:19.444Z,101800.42
2019-01-19T03:32:54.023Z,101798.44
2019-01-19T03:35:28.668Z,101800.13
2019-01-19T03:38:12.547Z,101795.19
2019-01-19T03:40:50.096Z,101799.03
2019-01-19T03:43:30.547Z,101800.98
2019-01-19T03:46:20.381Z,101804.62
2019-01-19T03:48:57.629Z,101802.20
2019-01-19T03:51:29.243Z,101797.38
2019-01-19T03:54:00.875Z,101800.84
2019-01-19T03:56:47.358Z,101800.92
2019-01-19T03:59:27.829Z,101794.47
2019-01-19T04:02:02.270Z,101790.89
2019-01-19T04:04:58.387Z,101799.13
2019-01-19T04:07:36.102Z,101795.45
2019-01-19T04:10:16.393Z,101798.84
2019-01-19T04:13:18.534Z,101798.47
2019-01-19T04:15:58.697Z,101802.81
2019-01-19T04:18:32.988Z,101802.58
2019-01-19T04:21:25.656Z,101809.30
2019-01-19T04:24:00.247Z,101800.38
2019-01-19T04:26:31.633Z,101803.46
2019-01-19T04:29:00.063Z,101806.02
2019-01-19T04:31:28.525Z,101804.31
2019-01-19T04:33:57.528Z,101807.17
2019-01-19T04:36:26.154Z,101803.94
2019-01-19T04:38:54.862Z,101799.34
2019-01-19T04:41:23.306Z,101798.31
2019-01-19T04:43:51.730Z,101802.53
2019-01-19T04:46:20.188Z,101795.28
2019-01-19T04:48:48.885Z,101793.28
2019-01-19T04:51:17.343Z,101793.95
2019-01-19T04:53:45.769Z,101790.98
2019-01-19T04:56:14.233Z,101791.66
2019-01-19T04:58:42.650Z,101797.49
2019-01-19T05:01:11.104Z,101794.62
2019-01-19T05:03:39.537Z,101795.76
2019-01-19T05:06:12.547Z,101795.28
2019-01-19T05:08:38.240Z,101798.33
2019-01-19T05:11:06.668Z,101798.45
2019-01-19T05:13:35.119Z,101795.48
2019-01-19T05:16:03.554Z,101794.73
2019-01-19T05:18:32.079Z,101796.81
2019-01-19T05:21:00.583Z,101802.56
2019-01-19T05:23:29.315Z,101801.56
2019-01-19T05:25:57.740Z,101803.36
2019-01-19T05:28:26.206Z,101804.22
2019-01-19T05:30:54.630Z,101800.98
2019-01-19T05:33:23.090Z,101804.09
2019-01-19T05:35:51.593Z,101802.27
2019-01-19T05:38:20.128Z,101797.94
2019-01-19T05:40:48.550Z,101799.63
2019-01-19T05:43:17.009Z,101804.56
2019-01-19T05:45:45.445Z,101794.26
2019-01-19T05:48:13.907Z,101789.22
2019-01-19T05:50:42.407Z,101790.58
2019-01-19T05:53:10.866Z,101795.83
2019-01-19T05:55:39.303Z,101798.30
2019-01-19T05:58:07.751Z,101796.90
2019-01-19T06:00:36.551Z,101797.44
2019-01-19T06:03:05.176Z,101798.09
2019-01-19T06:05:33.679Z,101801.34
2019-01-19T06:08:02.112Z,101802.03
2019-01-19T06:10:30.600Z,101797.17
2019-01-19T06:12:59.087Z,101803.73
2019-01-19T06:15:27.535Z,101805.51
2019-01-19T06:17:55.976Z,101801.36
2019-01-19T06:20:24.428Z,101801.59
2019-01-19T06:22:52.858Z,101811.36
2019-01-19T06:25:21.326Z,101814.27
2019-01-19T06:27:49.755Z,101814.07
2019-01-19T06:30:22.677Z,101816.45
2019-01-19T06:32:51.108Z,101815.83
2019-01-19T06:35:19.633Z,101821.64
2019-01-19T06:37:48.215Z,101824.00
2019-01-19T06:40:18.208Z,101826.39
2019-01-19T06:42:46.683Z,101823.81
2019-01-19T06:45:18.303Z,101830.83
2019-01-19T06:47:46.818Z,101830.19
2019-01-19T06:50:16.821Z,101828.45
2019-01-19T06:52:45.322Z,101829.53
2019-01-19T06:55:19.050Z,101833.31
2019-01-19T06:57:47.477Z,101833.89
2019-01-19T07:00:17.936Z,101825.35
2019-01-19T07:02:46.437Z,101826.89
2019-01-19T07:05:15.234Z,101828.50
2019-01-19T07:07:43.736Z,101836.13
2019-01-19T07:10:20.773Z,101833.73
2019-01-19T07:12:49.265Z,101838.42
2019-01-19T07:15:17.791Z,101846.09
2019-01-19T07:17:46.208Z,101839.63
2019-01-19T07:20:17.191Z,101842.92
2019-01-19T07:22:45.690Z,101844.46
2019-01-19T07:25:14.423Z,101842.17
2019-01-19T07:27:42.910Z,101847.03
2019-01-19T07:30:17.769Z,101846.66
2019-01-19T07:32:47.433Z,101846.17
2019-01-19T07:35:17.518Z,101843.16
2019-01-19T07:37:46.029Z,101849.56
2019-01-19T07:40:17.191Z,101849.12
2019-01-19T07:42:46.837Z,101846.31
2019-01-19T07:45:16.247Z,101851.58
2019-01-19T07:47:45.379Z,101852.98
2019-01-19T07:50:18.247Z,101846.58
2019-01-19T07:52:46.946Z,101843.86
2019-01-19T07:55:17.222Z,101859.46
2019-01-19T07:57:45.675Z,101859.69
2019-01-19T08:00:17.403Z,101856.55
2019-01-19T08:02:45.925Z,101856.77
2019-01-19T08:05:14.355Z,101867.27
2019-01-19T08:07:42.811Z,101866.22
2019-01-19T08:10:16.736Z,101869.16
2019-01-19T08:12:45.324Z,101868.70
2019-01-19T08:15:19.511Z,101865.38
2019-01-19T08:17:47.963Z,101867.31
2019-01-19T08:20:16.528Z,101863.02
2019-01-19T08:22:44.987Z,101870.67
2019-01-19T08:25:13.958Z,101873.91
2019-01-19T08:27:42.470Z,101866.06
2019-01-19T08:30:17.658Z,101873.53
2019-01-19T08:32:46.173Z,101873.91
2019-01-19T08:35:16.507Z,101873.80
2019-01-19T08:37:45.307Z,101874.09
2019-01-19T08:40:19.231Z,101878.39
2019-01-19T08:42:49.394Z,101875.04
2019-01-19T08:45:18.686Z,101877.78
2019-01-19T08:47:47.205Z,101880.76
2019-01-19T08:50:15.703Z,101881.43
2019-01-19T08:52:44.221Z,101879.80
2019-01-19T08:55:12.653Z,101886.00
2019-01-19T08:57:41.104Z,101881.80
2019-01-19T09:00:12.697Z,101887.14
2019-01-19T09:02:41.144Z,101890.77
2019-01-19T09:05:10.909Z,101885.75
2019-01-19T09:07:39.368Z,101886.30
2019-01-19T09:10:16.801Z,101885.36
2019-01-19T09:12:45.294Z,101890.23
2019-01-19T09:15:19.101Z,101883.44
2019-01-19T09:17:47.557Z,101881.07
2019-01-19T09:20:18.746Z,101876.17
2019-01-19T09:22:48.904Z,101877.27
2019-01-19T09:25:17.505Z,101879.66
2019-01-19T09:27:46.022Z,101884.11
2019-01-19T09:30:20.111Z,101877.09
2019-01-19T09:32:48.631Z,101880.09
2019-01-19T09:35:17.427Z,101883.63
2019-01-19T09:37:46.948Z,101890.25
2019-01-19T09:40:17.665Z,101891.54
2019-01-19T09:42:46.253Z,101887.36
2019-01-19T09:45:18.725Z,101886.59
2019-01-19T09:47:47.314Z,101886.14
2019-01-19T09:50:18.144Z,101890.25
2019-01-19T09:52:46.588Z,101891.80
2019-01-19T09:55:15.160Z,101895.82
2019-01-19T09:57:43.681Z,101895.24
2019-01-19T10:00:21.130Z,101900.05
2019-01-19T10:02:49.656Z,101891.31
2019-01-19T10:05:22.889Z,101889.27
2019-01-19T10:07:51.413Z,101890.41
2019-01-19T10:10:19.985Z,101890.20
2019-01-19T10:12:48.504Z,101888.16
2019-01-19T10:15:19.042Z,101890.30
2019-01-19T10:17:47.491Z,101888.05
2019-01-19T10:20:30.296Z,101885.04
2019-01-19T10:22:58.744Z,101882.42
2019-01-19T10:25:27.170Z,101890.02
2019-01-19T10:27:55.793Z,101886.39
2019-01-19T10:30:28.563Z,101887.27
2019-01-19T10:32:57.155Z,101884.37
2019-01-19T10:35:25.651Z,101876.68
2019-01-19T10:37:56.514Z,101875.77
2019-01-19T10:40:24.407Z,101873.35
2019-01-19T10:42:52.834Z,101872.92
2019-01-19T10:45:23.993Z,101873.48
2019-01-19T10:47:52.488Z,101871.58
2019-01-19T10:50:21.005Z,101862.19
2019-01-19T10:52:49.502Z,101862.46
2019-01-19T10:55:20.295Z,101859.08
2019-01-19T10:57:48.863Z,101859.48
2019-01-19T11:00:20.020Z,101862.57
2019-01-19T11:02:48.514Z,101860.61
2019-01-19T11:05:17.033Z,101854.52
2019-01-19T11:07:47.097Z,101863.83
2019-01-19T11:10:18.091Z,101857.84
2019-01-19T11:12:46.576Z,101851.88
2019-01-19T11:15:17.569Z,101857.52
2019-01-19T11:17:45.992Z,101848.48
2019-01-19T11:20:19.909Z,101853.49
2019-01-19T11:22:48.331Z,101852.28
2019-01-19T11:25:17.014Z,101852.42
2019-01-19T11:27:45.501Z,101840.94
2019-01-19T11:30:28.028Z,101842.64
2019-01-19T11:32:56.521Z,101842.16
2019-01-19T11:35:25.052Z,101839.59
2019-01-19T11:37:53.618Z,101831.13
2019-01-19T11:40:24.607Z,101827.86
2019-01-19T11:42:53.030Z,101828.58
2019-01-19T11:45:22.929Z,101820.28
2019-01-19T11:47:51.417Z,101817.50
2019-01-19T11:50:20.000Z,101810.88
2019-01-19T11:52:48.597Z,101813.69
2019-01-19T11:55:19.229Z,101814.41
2019-01-19T11:57:49.311Z,101814.67
2019-01-19T12:00:20.044Z,101810.67
2019-01-19T12:02:48.555Z,101809.79
2019-01-19T12:05:17.047Z,101807.72
2019-01-19T12:07:45.499Z,101804.19
2019-01-19T12:10:22.132Z,101800.38
2019-01-19T12:12:50.586Z,101798.57
2019-01-19T12:15:19.083Z,101803.82
2019-01-19T12:17:47.598Z,101800.64
2019-01-19T12:20:21.274Z,101799.27
2019-01-19T12:22:49.860Z,101800.31
2019-01-19T12:25:25.710Z,101800.98
2019-01-19T12:27:54.396Z,101798.53
2019-01-19T12:30:27.955Z,101795.61
2019-01-19T12:32:56.470Z,101796.19
2019-01-19T12:35:24.957Z,101794.45
2019-01-19T12:37:53.745Z,101789.56
2019-01-19T12:40:24.315Z,101793.10
2019-01-19T12:42:55.604Z,101792.16
2019-01-19T12:45:39.265Z,101792.29
2019-01-19T12:48:07.718Z,101790.59
2019-01-19T12:50:36.228Z,101788.80
2019-01-19T12:53:04.849Z,101790.50
2019-01-19T12:55:33.605Z,101785.88
2019-01-19T12:58:02.129Z,101780.05
2019-01-19T13:00:30.612Z,101777.75
2019-01-19T13:02:59.065Z,101779.45
2019-01-19T13:05:30.662Z,101775.42
2019-01-19T13:07:59.413Z,101776.67
2019-01-19T13:10:33.701Z,101777.39
2019-01-19T13:13:03.301Z,101777.39
2019-01-19T13:15:49.620Z,101770.67
2019-01-19T13:18:42.160Z,101775.52
2019-01-19T13:21:30.242Z,101773.33
2019-01-19T13:24:21.228Z,101769.06
2019-01-19T13:27:12.166Z,101769.66
2019-01-19T13:29:46.642Z,101764.87
2019-01-19T13:32:18.242Z,101765.09
2019-01-19T13:34:49.867Z,101759.59
2019-01-19T13:37:33.191Z,101758.02
2019-01-19T13:40:10.017Z,101755.56
2019-01-19T13:42:59.495Z,101753.10
2019-01-19T13:45:49.128Z,101751.27
2019-01-19T13:48:32.933Z,101751.72
2019-01-19T13:51:10.229Z,101751.09
2019-01-19T13:53:56.933Z,101746.08
2019-01-19T13:56:31.405Z,101743.34
2019-01-19T13:59:09.006Z,101743.56
2019-01-19T14:01:43.543Z,101743.52
2019-01-19T14:04:24.050Z,101744.36
2019-01-19T14:06:58.670Z,101745.30
2019-01-19T14:09:36.199Z,101744.41
2019-01-19T14:12:19.603Z,101746.09
2019-01-19T14:14:56.912Z,101743.39
2019-01-19T14:17:40.090Z,101748.13
2019-01-19T14:20:28.364Z,101745.53
2019-01-19T14:23:27.767Z,101737.83
2019-01-19T14:26:26.366Z,101734.15
2019-01-19T14:29:16.894Z,101738.27
2019-01-19T14:31:51.115Z,101733.16
2019-01-19T14:34:28.633Z,101727.15
2019-01-19T14:37:15.085Z,101733.22
2019-01-19T14:40:01.687Z,101723.84
2019-01-19T14:42:36.253Z,101730.53
2019-01-19T14:45:25.555Z,101732.09
2019-01-19T14:48:06.269Z,101726.94
2019-01-19T14:50:43.471Z,101728.52
2019-01-19T14:53:18.136Z,101727.41
2019-01-19T14:56:14.091Z,101730.03
2019-01-19T14:59:09.985Z,101734.50
2019-01-19T15:01:56.425Z,101735.60
2019-01-19T15:04:30.835Z,101728.78
2019-01-19T15:07:14.011Z,101731.20
2019-01-19T15:09:57.501Z,101731.41
2019-01-19T15:12:34.852Z,101730.59
2019-01-19T15:15:09.111Z,101732.89
2019-01-19T15:18:05.225Z,101731.13
2019-01-19T15:20:45.969Z,101737.73
2019-01-19T15:23:29.619Z,101736.14
2019-01-19T15:26:06.976Z,101739.31
2019-01-19T15:28:53.524Z,101734.45
2019-01-19T15:31:30.686Z,101731.89
2019-01-19T15:34:05.120Z,101737.44
2019-01-19T15:37:02.360Z,101731.53
2019-01-19T15:39:33.992Z,101730.61
2019-01-19T15:42:30.926Z,101735.97
2019-01-19T15:45:31.386Z,101733.67
2019-01-19T15:48:14.683Z,101737.03
2019-01-19T15:51:10.395Z,101736.30
2019-01-19T15:53:42.023Z,101739.64
2019-01-19T15:56:43.782Z,101736.67
2019-01-19T15:59:36.357Z,101732.66
2019-01-19T16:02:16.680Z,101741.83
2019-01-19T16:05:09.356Z,101729.91
2019-01-19T16:07:47.097Z,101738.77
2019-01-19T16:10:39.821Z,101741.91
2019-01-19T16:13:14.219Z,101733.70
2019-01-19T16:16:13.298Z,101740.66
2019-01-19T16:18:47.879Z,101731.57
2019-01-19T16:21:28.377Z,101731.48
2019-01-19T16:24:05.807Z,101739.56
2019-01-19T16:26:58.294Z,101732.52
2019-01-19T16:29:44.783Z,101732.81
2019-01-19T16:32:31.300Z,101734.33
2019-01-19T16:35:25.730Z,101737.00
2019-01-19T16:38:02.655Z,101736.02
2019-01-19T16:40:49.121Z,101733.83
2019-01-19T16:43:35.822Z,101733.33
2019-01-19T16:46:16.163Z,101735.63
2019-01-19T16:49:07.232Z,101734.30
2019-01-19T16:51:44.761Z,101735.73
2019-01-19T16:54:26.001Z,101730.81
2019-01-19T16:57:03.866Z,101732.91
2019-01-19T16:59:57.005Z,101736.99
2019-01-19T17:02:52.905Z,101729.53
2019-01-19T17:05:27.367Z,101729.34
2019-01-19T17:08:01.693Z,101730.41
2019-01-19T17:10:38.982Z,101729.48
2019-01-19T17:13:27.369Z,101724.24
2019-01-19T17:16:24.692Z,101730.64
2019-01-19T17:19:14.601Z,101725.09
2019-01-19T17:21:54.987Z,101731.19
2019-01-19T17:24:38.616Z,101729.00
2019-01-19T17:27:16.084Z,101733.47
2019-01-19T17:29:53.625Z,101732.89
2019-01-19T17:32:32.818Z,101732.65
2019-01-19T17:35:22.610Z,101734.39
2019-01-19T17:38:09.230Z,101729.98
2019-01-19T17:41:03.344Z,101729.39
2019-01-19T17:43:40.922Z,101729.49
2019-01-19T17:46:15.295Z,101729.56
2019-01-19T17:48:49.740Z,101729.92
2019-01-19T17:51:44.103Z,101729.78
2019-01-19T17:54:21.540Z,101727.66
2019-01-19T17:57:10.114Z,101723.45
2019-01-19T18:00:16.451Z,101724.56
2019-01-19T18:02:56.846Z,101726.22
2019-01-19T18:05:40.433Z,101725.73
2019-01-19T18:08:31.429Z,101731.70
2019-01-19T18:11:19.513Z,101734.95
2019-01-19T18:13:56.757Z,101724.28
2019-01-19T18:16:50.853Z,101731.97
2019-01-19T18:19:25.480Z,101729.56
2019-01-19T18:22:28.833Z,101733.25
2019-01-19T18:25:06.464Z,101732.39
2019-01-19T18:27:53.344Z,101734.75
2019-01-19T18:30:51.277Z,101739.38
2019-01-19T18:33:25.974Z,101737.04
2019-01-19T18:36:12.620Z,101727.43
2019-01-19T18:38:49.935Z,101737.23
2019-01-19T18:41:36.426Z,101730.09
2019-01-19T18:44:16.793Z,101730.57
2019-01-19T18:46:57.630Z,101733.14
2019-01-19T18:49:52.007Z,101735.70
2019-01-19T18:52:26.467Z,101737.61
2019-01-19T18:55:03.993Z,101735.11
2019-01-19T18:57:53.773Z,101736.13
2019-01-19T19:00:37.267Z,101730.16
2019-01-19T19:03:14.430Z,101734.47
2019-01-19T19:05:55.371Z,101733.45
2019-01-19T19:08:36.020Z,101727.27
2019-01-19T19:11:19.355Z,101731.11
2019-01-19T19:14:11.922Z,101722.27
2019-01-19T19:16:48.974Z,101725.50
2019-01-19T19:19:32.055Z,101727.78
2019-01-19T19:22:09.721Z,101720.44
2019-01-19T19:24:49.967Z,101729.91
2019-01-19T19:27:30.431Z,101731.08
2019-01-19T19:30:04.719Z,101719.61
2019-01-19T19:32:42.330Z,101728.13
2019-01-19T19:35:16.623Z,101726.89
2019-01-19T19:37:54.290Z,101727.14
2019-01-19T19:40:44.009Z,101733.63
2019-01-19T19:43:18.643Z,101730.50
2019-01-19T19:45:55.968Z,101736.20
2019-01-19T19:48:42.717Z,101734.58
2019-01-19T19:51:43.096Z,101729.41
2019-01-19T19:54:11.630Z,101724.97
2019-01-19T19:56:39.037Z,101727.14
2019-01-19T19:59:07.566Z,101728.80
2019-01-19T20:01:36.007Z,101726.53
2019-01-19T20:04:04.540Z,101724.03
2019-01-19T20:06:32.977Z,101728.59
2019-01-19T20:09:01.504Z,101723.41
2019-01-19T20:11:30.410Z,101723.41
2019-01-19T20:13:58.874Z,101722.89
2019-01-19T20:16:27.309Z,101717.30
2019-01-19T20:18:55.769Z,101721.47
2019-01-19T20:21:24.282Z,101721.62
2019-01-19T20:23:52.742Z,101725.63
2019-01-19T20:26:21.551Z,101727.07
2019-01-19T20:28:50.012Z,101725.02
2019-01-19T20:31:18.450Z,101727.47
2019-01-19T20:33:46.909Z,101727.86
2019-01-19T20:36:15.350Z,101729.03
2019-01-19T20:38:43.818Z,101729.39
2019-01-19T20:41:12.253Z,101723.60
2019-01-19T20:43:40.721Z,101722.49
2019-01-19T20:46:09.169Z,101729.78
2019-01-19T20:48:37.806Z,101727.91
2019-01-19T20:51:06.317Z,101728.00
2019-01-19T20:53:34.829Z,101727.91
2019-01-19T20:56:03.337Z,101724.93
2019-01-19T20:58:31.763Z,101727.34
2019-01-19T21:01:00.226Z,101726.39
2019-01-19T21:03:28.663Z,101723.66
2019-01-19T21:05:57.120Z,101722.63
2019-01-19T21:08:25.556Z,101722.94
2019-01-19T21:10:54.015Z,101719.10
2019-01-19T21:13:22.452Z,101725.25
2019-01-19T21:15:50.910Z,101721.41
2019-01-19T21:18:19.354Z,101727.72
2019-01-19T21:20:47.823Z,101723.55
2019-01-19T21:23:16.254Z,101725.27
2019-01-19T21:25:44.721Z,101718.06
2019-01-19T21:28:13.160Z,101721.33
2019-01-19T21:30:41.627Z,101719.83
2019-01-19T21:33:10.064Z,101721.37
2019-01-19T21:35:38.521Z,101712.67
2019-01-19T21:38:07.025Z,101710.70
2019-01-19T21:40:39.199Z,101713.27
2019-01-19T21:43:05.643Z,101722.97
2019-01-19T21:45:34.102Z,101716.41
2019-01-19T21:48:02.542Z,101715.55
2019-01-19T21:50:31.000Z,101716.03
2019-01-19T21:52:59.435Z,101717.91
2019-01-19T21:55:27.892Z,101719.34
2019-01-19T21:57:56.335Z,101716.73
2019-01-19T22:00:24.775Z,101714.96
2019-01-19T22:02:53.309Z,101720.30
2019-01-19T22:05:21.809Z,101721.14
2019-01-19T22:07:50.345Z,101725.05
2019-01-19T22:10:22.660Z,101720.67
2019-01-19T22:12:51.301Z,101726.95
2019-01-19T22:15:20.097Z,101728.92
2019-01-19T22:17:48.558Z,101727.66
2019-01-19T22:20:18.240Z,101726.42
2019-01-19T22:22:46.876Z,101727.34
2019-01-19T22:25:15.383Z,101733.16
2019-01-19T22:27:45.487Z,101730.90
2019-01-19T22:30:16.572Z,101736.61
2019-01-19T22:32:45.028Z,101735.75
2019-01-19T22:35:13.634Z,101733.56
2019-01-19T22:37:42.162Z,101736.98
2019-01-19T22:40:13.913Z,101736.92
2019-01-19T22:42:42.370Z,101734.70
2019-01-19T22:45:12.652Z,101731.18
2019-01-19T22:47:41.113Z,101734.32
2019-01-19T22:50:12.408Z,101732.92
2019-01-19T22:52:40.862Z,101726.27
2019-01-19T22:55:09.537Z,101721.21
2019-01-19T22:57:38.004Z,101722.00
2019-01-19T23:00:57.238Z,101722.38
2019-01-19T23:03:26.139Z,101714.86
2019-01-19T23:05:54.578Z,101717.05
2019-01-19T23:08:23.040Z,101719.61
2019-01-19T23:10:51.479Z,101717.84
2019-01-19T23:13:19.941Z,101720.41
2019-01-19T23:15:48.451Z,101714.97
2019-01-19T23:18:16.973Z,101715.77
2019-01-19T23:20:45.486Z,101721.88
2019-01-19T23:23:13.950Z,101723.22
2019-01-19T23:25:42.387Z,101718.27
2019-01-19T23:28:10.848Z,101716.31
2019-01-19T23:30:39.285Z,101712.89
2019-01-19T23:33:07.747Z,101711.08
2019-01-19T23:35:36.188Z,101716.72
2019-01-19T23:38:04.681Z,101705.10
2019-01-19T23:40:33.123Z,101704.41
2019-01-19T23:43:01.558Z,101712.03
2019-01-19T23:45:30.025Z,101708.41
2019-01-19T23:47:58.461Z,101713.74
2019-01-19T23:50:26.931Z,101709.27
2019-01-19T23:52:55.363Z,101702.53
2019-01-19T23:55:23.828Z,101705.75
2019-01-19T23:57:52.258Z,101701.58
